Time;durP1;ratioP1;P1;durP2;ratioP2;P2;SDS_P1;SDS_P2;PMS_P1;PMS_P2;Temp;Humidity;BMP_temperature;BMP_pressure;BME280_temperature;BME280_humidity;BME280_pressure;Samples;Min_cycle;Max_cycle;Signal;HPM_P1;HPM_P2
2022/01/05 00:00:29;;;;;;;;;;;;;;;5.01;89.84;98332.66;3501793;79;20125;-71
2022/01/05 00:05:20;;;;;;;;;;;;;;;4.88;89.80;98347.23;3520889;79;20466;-71
2022/01/05 00:10:12;;;;;;;;;;;;;;;4.72;89.70;98351.48;3540700;79;20128;-72
2022/01/05 00:15:05;;;;;;;;;;;;;;;4.57;89.70;98366.87;3543871;79;20100;-72
2022/01/05 00:19:57;;;;;;;;;;;;;;;4.47;89.79;98373.70;3536484;79;21858;-72
2022/01/05 00:24:49;;;;;;;;;;;;;;;4.38;89.78;98381.36;3523387;79;20128;-71
2022/01/05 00:29:41;;;;;;;;;;;;;;;4.30;90.11;98385.63;3424924;80;20154;-71
2022/01/05 00:34:32;;;;;;;;;;;;;;;4.27;90.19;98388.18;3491105;81;20131;-71
2022/01/05 00:39:24;;;;;;;;;;;;;;;4.23;90.29;98389.03;3505764;80;20133;-71
2022/01/05 00:44:18;;;;;;;;;;;;;;;4.16;90.15;98403.56;3486327;80;21123;-71
2022/01/05 00:49:11;;;;;;;;;;;;;;;4.08;90.12;98397.09;3486410;81;20135;-72
2022/01/05 00:54:03;;;;;;;;;;;;;;;3.98;89.91;98408.17;3477537;80;20552;-70
2022/01/05 00:58:55;;;;;;;;;;;;;;;3.93;90.18;98411.12;3600468;78;20494;-70
2022/01/05 01:03:47;;;;;;;;;;;;;;;3.88;90.39;98421.40;3595404;78;20952;-71
2022/01/05 01:08:39;;;;;;;;;;;;;;;3.86;90.42;98427.36;3531694;78;20963;-71
2022/01/05 01:13:30;;;;;;;;;;;;;;;3.86;90.71;98428.65;3580013;78;20279;-71
2022/01/05 01:18:22;;;;;;;;;;;;;;;3.88;90.72;98423.09;3485785;80;20147;-71
2022/01/05 01:23:18;;;;;;;;;;;;;;;3.93;90.79;98420.12;3528401;79;20557;-72
2022/01/05 01:28:08;;;;;;;;;;;;;;;3.98;90.70;98428.30;3502588;80;20376;-71
2022/01/05 01:33:01;;;;;;;;;;;;;;;4.05;90.83;98433.50;3533391;80;20362;-72
2022/01/05 01:37:54;;;;;;;;;;;;;;;4.14;90.79;98444.69;3493859;79;20131;-71
2022/01/05 01:42:46;;;;;;;;;;;;;;;4.20;90.64;98455.04;3533337;79;20149;-72
2022/01/05 01:47:38;;;;;;;;;;;;;;;4.17;90.53;98458.87;3502011;79;20279;-71
2022/01/05 01:52:30;;;;;;;;;;;;;;;4.18;90.77;98468.28;3470281;79;21253;-72
2022/01/05 01:57:22;;;;;;;;;;;;;;;4.24;90.92;98471.75;3472868;79;20930;-71
2022/01/05 02:02:16;;;;;;;;;;;;;;;4.33;90.99;98476.98;3544332;79;20140;-71
2022/01/05 02:07:08;;;;;;;;;;;;;;;4.42;90.93;98478.32;3547761;79;20209;-71
2022/01/05 02:12:00;;;;;;;;;;;;;;;4.48;90.98;98480.91;3534916;79;20117;-72
2022/01/05 02:16:52;;;;;;;;;;;;;;;4.53;90.84;98477.94;3496359;79;20254;-71
2022/01/05 02:21:44;;;;;;;;;;;;;;;4.59;90.87;98474.09;3455606;79;20979;-72
2022/01/05 02:26:36;;;;;;;;;;;;;;;4.64;90.85;98490.87;3447766;79;20176;-71
2022/01/05 02:31:28;;;;;;;;;;;;;;;4.70;90.94;98495.18;3484654;79;20105;-71
2022/01/05 02:36:21;;;;;;;;;;;;;;;4.75;90.94;98497.36;3433084;79;20581;-71
2022/01/05 02:41:13;;;;;;;;;;;;;;;4.79;90.96;98497.80;3538144;79;20442;-71
2022/01/05 02:46:12;;;;;;;;;;;;;;;4.82;90.99;98488.80;3511667;79;21939;-71
2022/01/05 02:51:05;;;;;;;;;;;;;;;4.84;91.01;98501.69;3514447;79;20160;-71
2022/01/05 02:55:57;;;;;;;;;;;;;;;4.89;91.08;98520.16;3521414;79;20407;-72
2022/01/05 03:00:49;;;;;;;;;;;;;;;4.92;91.06;98519.34;3508505;79;20487;-72
2022/01/05 03:05:41;;;;;;;;;;;;;;;4.94;91.04;98528.78;3517695;79;20153;-71
2022/01/05 03:10:33;;;;;;;;;;;;;;;4.95;91.10;98522.78;3513047;79;20909;-71
2022/01/05 03:15:25;;;;;;;;;;;;;;;4.99;91.04;98526.64;3536052;79;20151;-71
2022/01/05 03:20:17;;;;;;;;;;;;;;;5.00;91.15;98530.95;3511321;80;20145;-71
2022/01/05 03:25:16;;;;;;;;;;;;;;;5.01;90.90;98527.50;3511454;79;20117;-72
2022/01/05 03:30:08;;;;;;;;;;;;;;;4.99;90.85;98530.50;3494174;79;20811;-71
2022/01/05 03:35:00;;;;;;;;;;;;;;;5.01;90.95;98526.21;3452480;79;20607;-71
2022/01/05 03:39:52;;;;;;;;;;;;;;;5.02;90.89;98527.95;3471649;82;20150;-72
2022/01/05 03:44:44;;;;;;;;;;;;;;;5.02;90.97;98521.51;3481359;80;20142;-71
2022/01/05 03:49:36;;;;;;;;;;;;;;;5.02;90.98;98516.36;3467052;82;20311;-71
2022/01/05 03:54:27;;;;;;;;;;;;;;;5.01;90.98;98501.75;3430698;81;20620;-72
2022/01/05 03:59:19;;;;;;;;;;;;;;;5.02;90.99;98504.77;3463696;81;21017;-71
2022/01/05 04:04:11;;;;;;;;;;;;;;;5.04;91.08;98510.34;3386331;81;20146;-72
2022/01/05 04:09:03;;;;;;;;;;;;;;;5.07;91.05;98519.81;3456336;82;20150;-72
2022/01/05 04:13:55;;;;;;;;;;;;;;;5.07;90.95;98527.55;3481741;82;20169;-71
2022/01/05 04:18:46;;;;;;;;;;;;;;;5.08;91.09;98526.67;3440324;82;20141;-72
2022/01/05 04:23:38;;;;;;;;;;;;;;;5.09;90.99;98528.41;3461580;81;21081;-71
2022/01/05 04:28:30;;;;;;;;;;;;;;;5.08;91.11;98522.41;3415696;82;20158;-72
2022/01/05 04:33:22;;;;;;;;;;;;;;;5.08;91.12;98524.09;3428410;81;20192;-71
2022/01/05 04:38:14;;;;;;;;;;;;;;;5.06;91.23;98518.08;3488205;79;20156;-71
2022/01/05 04:43:06;;;;;;;;;;;;;;;5.04;91.30;98521.08;3531875;79;20153;-71
2022/01/05 04:47:58;;;;;;;;;;;;;;;5.06;91.34;98546.41;3519912;79;21044;-72
2022/01/05 04:52:50;;;;;;;;;;;;;;;5.08;91.39;98542.12;3551327;79;20119;-72
2022/01/05 04:57:42;;;;;;;;;;;;;;;5.10;91.37;98543.88;3507237;79;20190;-72
2022/01/05 05:02:34;;;;;;;;;;;;;;;5.11;91.44;98548.16;3441980;79;20585;-70
2022/01/05 05:07:26;;;;;;;;;;;;;;;5.12;91.46;98552.90;3536256;79;20708;-71
2022/01/05 05:12:18;;;;;;;;;;;;;;;5.14;91.46;98555.05;3501754;79;20961;-71
2022/01/05 05:17:09;;;;;;;;;;;;;;;5.16;91.40;98540.45;3497041;79;20160;-72
2022/01/05 05:22:01;;;;;;;;;;;;;;;5.19;91.46;98540.88;3513919;79;20276;-71
2022/01/05 05:26:53;;;;;;;;;;;;;;;5.14;91.24;98536.58;3535226;79;20155;-72
2022/01/05 05:31:45;;;;;;;;;;;;;;;5.09;91.31;98546.44;3514663;79;20127;-72
2022/01/05 05:36:37;;;;;;;;;;;;;;;5.07;91.45;98565.74;3522879;79;21177;-71
2022/01/05 05:41:29;;;;;;;;;;;;;;;5.11;91.58;98585.94;3462304;79;20157;-71
2022/01/05 05:46:21;;;;;;;;;;;;;;;5.13;91.46;98579.95;3531715;79;20984;-71
2022/01/05 05:51:13;;;;;;;;;;;;;;;5.17;91.48;98596.29;3537680;79;20276;-72
2022/01/05 05:56:05;;;;;;;;;;;;;;;5.20;91.43;98601.44;3535046;79;20240;-71
2022/01/05 06:00:57;;;;;;;;;;;;;;;5.23;91.45;98613.05;3521833;79;20953;-70
2022/01/05 06:05:49;;;;;;;;;;;;;;;5.26;91.40;98622.09;3479147;79;20422;-71
2022/01/05 06:10:40;;;;;;;;;;;;;;;5.28;91.33;98616.52;3509665;79;20161;-71
2022/01/05 06:15:32;;;;;;;;;;;;;;;5.30;91.23;98619.95;3537056;79;20113;-71
2022/01/05 06:20:24;;;;;;;;;;;;;;;5.31;91.12;98629.42;3507041;79;20133;-71
2022/01/05 06:25:16;;;;;;;;;;;;;;;5.32;91.18;98631.56;3509391;79;20892;-71
2022/01/05 06:30:09;;;;;;;;;;;;;;;5.32;91.12;98634.98;3530273;79;20130;-71
2022/01/05 06:35:03;;;;;;;;;;;;;;;5.33;91.14;98637.16;3482405;79;20117;-70
2022/01/05 06:39:55;;;;;;;;;;;;;;;5.34;91.14;98656.47;3509500;79;20240;-71
2022/01/05 06:44:47;;;;;;;;;;;;;;;5.37;91.13;98653.50;3492879;79;20130;-71
2022/01/05 06:49:39;;;;;;;;;;;;;;;5.34;91.01;98657.76;3555080;79;21077;-71
2022/01/05 06:54:31;;;;;;;;;;;;;;;5.33;90.99;98661.20;3533014;79;20603;-71
2022/01/05 06:59:22;;;;;;;;;;;;;;;5.32;90.99;98645.30;3547374;79;20115;-71
2022/01/05 07:04:15;;;;;;;;;;;;;;;5.33;90.90;98647.47;3502892;79;20307;-71
2022/01/05 07:09:07;;;;;;;;;;;;;;;5.32;90.88;98656.89;3488723;79;20130;-71
2022/01/05 07:13:59;;;;;;;;;;;;;;;5.34;90.84;98668.50;3479829;79;20878;-71
2022/01/05 07:18:51;;;;;;;;;;;;;;;5.37;90.86;98672.83;3491402;79;20121;-70
2022/01/05 07:23:43;;;;;;;;;;;;;;;5.38;90.75;98665.08;3500960;79;20139;-70
2022/01/05 07:28:34;;;;;;;;;;;;;;;5.44;90.56;98644.94;3460449;79;20121;-70
2022/01/05 07:33:26;;;;;;;;;;;;;;;5.47;90.65;98665.15;3525466;79;20168;-70
2022/01/05 07:38:18;;;;;;;;;;;;;;;5.50;90.64;98666.87;3482864;79;21710;-70
2022/01/05 07:43:10;;;;;;;;;;;;;;;5.50;90.45;98665.14;3466103;81;20240;-70
2022/01/05 07:48:06;;;;;;;;;;;;;;;5.47;90.47;98665.55;3510568;81;20130;-70
2022/01/05 07:53:01;;;;;;;;;;;;;;;5.44;90.52;98662.55;3511942;79;20892;-71
2022/01/05 07:57:51;;;;;;;;;;;;;;;5.42;90.50;98661.69;3473539;81;20125;-71
2022/01/05 08:02:43;;;;;;;;;;;;;;;5.42;90.47;98659.52;3496265;80;20955;-70
2022/01/05 08:07:35;;;;;;;;;;;;;;;5.42;90.37;98656.53;3481832;81;20120;-70
2022/01/05 08:12:27;;;;;;;;;;;;;;;5.47;90.55;98656.12;3485856;81;20128;-70
2022/01/05 08:17:19;;;;;;;;;;;;;;;5.47;90.41;98648.80;3464039;80;20432;-70
2022/01/05 08:22:11;;;;;;;;;;;;;;;5.52;90.34;98645.81;3480771;81;20838;-70
2022/01/05 08:27:03;;;;;;;;;;;;;;;5.60;90.21;98650.99;3487429;81;20850;-70
2022/01/05 08:31:55;;;;;;;;;;;;;;;5.68;90.00;98650.61;3470520;79;20442;-70
2022/01/05 08:36:47;;;;;;;;;;;;;;;5.70;90.05;98653.61;3477573;81;20450;-70
2022/01/05 08:41:39;;;;;;;;;;;;;;;5.76;90.15;98660.94;3444255;79;20124;-70
2022/01/05 08:46:31;;;;;;;;;;;;;;;5.76;90.20;98642.48;3536278;79;20584;-70
2022/01/05 08:51:23;;;;;;;;;;;;;;;5.75;90.20;98654.08;3494588;79;20914;-71
2022/01/05 08:56:15;;;;;;;;;;;;;;;5.73;90.19;98645.89;3505866;79;20152;-72
2022/01/05 09:01:10;;;;;;;;;;;;;;;5.83;90.13;98648.50;3514605;79;20485;-70
2022/01/05 09:06:03;;;;;;;;;;;;;;;5.88;89.90;98658.41;3517786;79;20341;-71
2022/01/05 09:10:54;;;;;;;;;;;;;;;5.91;89.75;98659.27;3499266;79;20158;-72
2022/01/05 09:15:46;;;;;;;;;;;;;;;5.97;89.75;98655.88;3504707;79;20773;-70
2022/01/05 09:20:38;;;;;;;;;;;;;;;6.03;89.65;98663.65;3441790;79;20577;-70
2022/01/05 09:25:30;;;;;;;;;;;;;;;6.13;89.65;98663.66;3502739;79;20126;-70
2022/01/05 09:30:26;;;;;;;;;;;;;;;6.27;89.36;98661.97;3449932;80;21931;-70
2022/01/05 09:35:21;;;;;;;;;;;;;;;6.41;89.28;98648.64;3503829;79;20394;-70
2022/01/05 09:45:23;;;;;;;;;;;;;;;6.56;88.67;98640.47;3491395;81;20414;-71
2022/01/05 09:50:15;;;;;;;;;;;;;;;6.63;88.87;98643.48;3503748;79;20122;-72
2022/01/05 09:55:08;;;;;;;;;;;;;;;6.67;88.86;98640.02;3480333;81;20636;-71
2022/01/05 10:00:00;;;;;;;;;;;;;;;6.59;88.35;98654.23;3506379;81;20560;-70
2022/01/05 10:04:52;;;;;;;;;;;;;;;6.51;88.48;98668.00;3482399;81;20768;-70
2022/01/05 10:09:45;;;;;;;;;;;;;;;6.44;88.91;98664.14;3508579;81;20118;-71
2022/01/05 10:14:42;;;;;;;;;;;;;;;6.48;88.73;98664.56;3486936;80;20118;-71
2022/01/05 10:19:35;;;;;;;;;;;;;;;6.51;88.47;98657.68;3491512;79;20154;-71
2022/01/05 10:24:44;;;;;;;;;;;;;;;6.52;88.40;98655.55;3460126;81;20109;-70
2022/01/05 10:29:36;;;;;;;;;;;;;;;6.61;88.23;98655.53;3435314;79;20910;-71
2022/01/05 10:34:32;;;;;;;;;;;;;;;6.77;88.02;98653.38;3537260;81;20414;-71
2022/01/05 10:39:30;;;;;;;;;;;;;;;6.77;87.84;98648.20;3505443;81;20485;-70
2022/01/05 10:44:23;;;;;;;;;;;;;;;6.81;88.00;98652.50;3547976;79;20125;-69
2022/01/05 10:49:24;;;;;;;;;;;;;;;6.81;87.83;98642.16;3454939;79;20106;-70
2022/01/05 10:54:19;;;;;;;;;;;;;;;6.78;87.56;98637.02;3462682;79;21752;-70
2022/01/05 10:59:14;;;;;;;;;;;;;;;6.86;87.80;98644.31;3528123;79;20108;-70
2022/01/05 11:04:21;;;;;;;;;;;;;;;6.96;87.82;98636.14;3516167;79;20166;-70
2022/01/05 11:09:12;;;;;;;;;;;;;;;6.95;87.59;98639.57;3462054;79;20181;-71
2022/01/05 11:14:09;;;;;;;;;;;;;;;6.89;87.67;98628.41;3457679;79;20387;-70
2022/01/05 11:19:23;;;;;;;;;;;;;;;6.86;87.73;98630.55;3486914;79;20924;-70
2022/01/05 11:24:15;;;;;;;;;;;;;;;6.84;87.91;98624.09;3490233;79;20082;-71
2022/01/05 11:29:07;;;;;;;;;;;;;;;6.83;87.83;98612.47;3457160;79;20141;-71
2022/01/05 11:33:59;;;;;;;;;;;;;;;6.78;87.87;98600.86;3501019;79;20196;-72
2022/01/05 11:38:51;;;;;;;;;;;;;;;6.77;88.02;98600.42;3477869;79;20474;-71
2022/01/05 11:43:44;;;;;;;;;;;;;;;6.78;88.01;98611.20;3431525;80;20793;-70
2022/01/05 11:48:40;;;;;;;;;;;;;;;6.77;87.85;98608.17;3485721;80;20142;-70
2022/01/05 11:53:39;;;;;;;;;;;;;;;6.71;88.10;98615.94;3483458;80;20095;-74
2022/01/05 11:58:33;;;;;;;;;;;;;;;6.59;88.40;98614.66;3431986;80;20513;-72
2022/01/05 12:03:53;;;;;;;;;;;;;;;6.55;88.47;98601.33;3468376;80;20149;-73
2022/01/05 12:08:48;;;;;;;;;;;;;;;6.49;88.53;98601.77;3511685;79;21028;-73
2022/01/05 12:13:39;;;;;;;;;;;;;;;6.40;88.55;98604.34;3509945;80;20110;-74
2022/01/05 12:18:35;;;;;;;;;;;;;;;6.28;88.36;98606.92;3456608;80;20111;-74
2022/01/05 12:23:28;;;;;;;;;;;;;;;6.12;88.63;98617.66;3496033;79;20114;-74
2022/01/05 12:28:38;;;;;;;;;;;;;;;6.11;88.99;98618.06;3484841;81;20151;-75
2022/01/05 12:33:51;;;;;;;;;;;;;;;6.03;88.93;98601.73;3451497;79;20936;-74
2022/01/05 12:38:48;;;;;;;;;;;;;;;5.98;89.30;98586.67;3481533;80;20144;-74
2022/01/05 12:43:40;;;;;;;;;;;;;;;5.96;89.16;98571.62;3502852;80;20137;-74
2022/01/05 12:48:36;;;;;;;;;;;;;;;5.91;89.07;98570.73;3515140;80;20411;-74
2022/01/05 12:53:35;;;;;;;;;;;;;;;5.87;89.37;98572.88;3483584;80;20128;-74
2022/01/05 12:58:35;;;;;;;;;;;;;;;5.84;89.45;98578.02;3531925;80;21001;-73
2022/01/05 13:03:33;;;;;;;;;;;;;;;5.82;89.47;98581.03;3515419;80;20117;-72
2022/01/05 13:08:27;;;;;;;;;;;;;;;5.84;89.57;98587.05;3472983;81;20146;-73
2022/01/05 13:13:22;;;;;;;;;;;;;;;5.85;89.34;98579.75;3491265;81;20395;-73
2022/01/05 13:18:15;;;;;;;;;;;;;;;5.81;89.26;98589.20;3491126;80;20617;-72
2022/01/05 13:23:07;;;;;;;;;;;;;;;5.81;89.52;98592.19;3443476;80;20884;-73
2022/01/05 13:28:06;;;;;;;;;;;;;;;5.82;89.58;98596.51;3467327;80;20362;-73
2022/01/05 13:33:04;;;;;;;;;;;;;;;5.84;89.69;98602.52;3445862;80;20104;-75
2022/01/05 13:37:58;;;;;;;;;;;;;;;5.81;89.47;98598.64;3480268;80;20142;-75
2022/01/05 13:42:58;;;;;;;;;;;;;;;5.78;89.67;98607.64;3535086;79;20123;-73
2022/01/05 13:47:55;;;;;;;;;;;;;;;5.76;89.73;98597.36;3560202;80;20938;-71
2022/01/05 13:53:04;;;;;;;;;;;;;;;5.75;89.87;98585.75;3550775;80;20122;-71
2022/01/05 13:58:08;;;;;;;;;;;;;;;5.72;89.94;98602.94;3525823;78;20132;-73
2022/01/05 14:03:00;;;;;;;;;;;;;;;5.69;90.03;98597.77;3574130;80;20123;-76
2022/01/05 14:08:08;;;;;;;;;;;;;;;5.66;90.05;98593.88;3544564;79;20112;-71
2022/01/05 14:13:03;;;;;;;;;;;;;;;5.62;90.02;98593.45;3556333;78;21386;-73
2022/01/05 14:18:02;;;;;;;;;;;;;;;5.62;90.28;98593.45;3507210;80;20112;-71
2022/01/05 14:23:06;;;;;;;;;;;;;;;5.62;90.21;98580.55;3489137;78;20117;-72
2022/01/05 14:27:58;;;;;;;;;;;;;;;5.62;90.28;98589.58;3526956;78;20587;-73
2022/01/05 14:32:53;;;;;;;;;;;;;;;5.62;90.23;98606.77;3546652;79;20500;-71
2022/01/05 14:38:02;;;;;;;;;;;;;;;5.60;90.05;98624.81;3562008;79;20908;-73
2022/01/05 14:42:57;;;;;;;;;;;;;;;5.55;89.93;98641.97;3562839;78;20089;-73
2022/01/05 14:47:49;;;;;;;;;;;;;;;5.51;89.99;98660.87;3537266;78;20109;-73
2022/01/05 14:52:43;;;;;;;;;;;;;;;5.46;89.76;98670.30;3498025;79;20124;-75
2022/01/05 14:57:35;;;;;;;;;;;;;;;5.35;89.43;98677.97;3496863;78;20756;-71
2022/01/05 15:02:28;;;;;;;;;;;;;;;5.20;88.90;98692.05;3500539;78;22052;-72
2022/01/05 15:07:20;;;;;;;;;;;;;;;5.02;88.36;98718.55;3495775;79;20131;-71
2022/01/05 15:12:13;;;;;;;;;;;;;;;4.83;88.35;98727.42;3477237;78;20160;-71
2022/01/05 15:17:05;;;;;;;;;;;;;;;4.70;88.18;98732.02;3480297;79;20412;-71
2022/01/05 15:21:57;;;;;;;;;;;;;;;4.57;87.76;98732.34;3520945;78;20253;-72
2022/01/05 15:26:49;;;;;;;;;;;;;;;4.41;87.65;98746.77;3451293;79;21816;-72
2022/01/05 15:31:41;;;;;;;;;;;;;;;4.32;87.71;98759.53;3530454;78;20235;-71
2022/01/05 15:36:33;;;;;;;;;;;;;;;4.23;87.98;98777.45;3525548;78;21118;-71
2022/01/05 15:41:25;;;;;;;;;;;;;;;4.19;87.85;98782.55;3487606;80;20169;-72
2022/01/05 15:46:17;;;;;;;;;;;;;;;4.15;88.08;98796.23;3458846;81;20442;-72
2022/01/05 15:51:09;;;;;;;;;;;;;;;4.13;87.90;98795.35;3413378;81;20947;-76
2022/01/05 15:56:09;;;;;;;;;;;;;;;4.06;87.91;98806.41;3484867;80;20183;-71
2022/01/05 16:01:19;;;;;;;;;;;;;;;4.04;87.80;98797.78;3489298;80;20124;-71
2022/01/05 16:06:00;;;;;;;;;;;;;;;3.98;87.89;98795.15;3391459;81;20120;-71
2022/01/05 16:10:51;;;;;;;;;;;;;;;3.99;88.28;98787.46;3453236;80;20115;-70
2022/01/05 16:15:46;;;;;;;;;;;;;;;3.99;87.92;98793.03;3403687;80;20855;-72
2022/01/05 16:20:38;;;;;;;;;;;;;;;3.91;87.96;98788.20;3461903;80;20127;-71
2022/01/05 16:25:31;;;;;;;;;;;;;;;3.84;88.15;98806.53;3453164;80;20084;-72
2022/01/05 16:30:23;;;;;;;;;;;;;;;3.78;88.11;98805.18;3442537;80;20490;-70
2022/01/05 16:35:15;;;;;;;;;;;;;;;3.72;88.08;98810.22;3480815;80;20613;-71
2022/01/05 16:40:07;;;;;;;;;;;;;;;3.68;88.06;98820.88;3451012;80;20970;-71
2022/01/05 16:45:00;;;;;;;;;;;;;;;3.63;88.23;98827.66;3545349;79;20129;-72
2022/01/05 16:49:54;;;;;;;;;;;;;;;3.64;88.21;98835.82;3539182;79;20141;-71
2022/01/05 16:54:49;;;;;;;;;;;;;;;3.63;88.26;98837.53;3536494;79;20113;-71
2022/01/05 17:04:51;;;;;;;;;;;;;;;3.63;88.02;98846.93;3458965;79;20973;-70
2022/01/05 17:09:42;;;;;;;;;;;;;;;3.55;87.87;98852.39;3482831;79;20478;-72
2022/01/05 17:14:36;;;;;;;;;;;;;;;3.49;87.85;98866.41;3455563;79;20150;-71
2022/01/05 17:19:29;;;;;;;;;;;;;;;3.44;87.94;98864.64;3475795;79;20129;-70
2022/01/05 17:24:21;;;;;;;;;;;;;;;3.41;88.01;98873.58;3463272;81;20430;-71
2022/01/05 17:29:13;;;;;;;;;;;;;;;3.42;88.02;98884.31;3461400;79;20888;-71
2022/01/05 17:34:05;;;;;;;;;;;;;;;3.43;87.78;98873.21;3482188;79;20212;-71
2022/01/05 17:38:56;;;;;;;;;;;;;;;3.42;87.81;98877.89;3444155;79;20096;-71
2022/01/05 17:43:49;;;;;;;;;;;;;;;3.40;87.73;98891.56;3527524;79;20153;-72
2022/01/05 17:48:41;;;;;;;;;;;;;;;3.36;87.46;98898.36;3500084;79;20864;-71
2022/01/05 17:53:32;;;;;;;;;;;;;;;3.33;87.29;98903.44;3478843;79;21766;-71
2022/01/05 17:58:24;;;;;;;;;;;;;;;3.29;87.21;98891.39;3476441;79;20177;-72
2022/01/05 18:03:16;;;;;;;;;;;;;;;3.25;87.20;98896.01;3506507;79;20114;-72
2022/01/05 18:08:09;;;;;;;;;;;;;;;3.24;87.11;98910.56;3529751;79;20141;-72
2022/01/05 18:13:01;;;;;;;;;;;;;;;3.22;86.91;98912.67;3499200;79;20141;-72
2022/01/05 18:17:52;;;;;;;;;;;;;;;3.16;87.00;98911.27;3535599;79;21251;-72
2022/01/05 18:22:45;;;;;;;;;;;;;;;3.16;87.03;98908.69;3478142;79;20505;-72
2022/01/05 18:27:38;;;;;;;;;;;;;;;3.12;86.69;98920.61;3537592;79;20094;-71
2022/01/05 18:32:33;;;;;;;;;;;;;;;3.08;86.77;98923.08;3508645;79;20130;-71
2022/01/05 18:37:24;;;;;;;;;;;;;;;3.05;86.87;98923.48;3495665;79;20464;-71
2022/01/05 18:42:17;;;;;;;;;;;;;;;3.05;86.91;98931.18;3505589;79;20943;-71
2022/01/05 18:47:09;;;;;;;;;;;;;;;3.03;86.63;98932.86;3541913;79;20149;-71
2022/01/05 18:52:01;;;;;;;;;;;;;;;3.00;86.51;98940.92;3515970;79;20493;-71
2022/01/05 18:56:53;;;;;;;;;;;;;;;3.02;86.73;98950.41;3472803;79;20145;-71
2022/01/05 19:01:45;;;;;;;;;;;;;;;3.00;86.66;98953.77;3542223;79;20426;-72
2022/01/05 19:06:38;;;;;;;;;;;;;;;3.01;86.65;98953.80;3490202;79;20932;-72
2022/01/05 19:11:30;;;;;;;;;;;;;;;3.01;86.53;98951.23;3543278;79;20506;-72
2022/01/05 19:16:22;;;;;;;;;;;;;;;2.99;86.60;98965.75;3463961;79;20125;-72
2022/01/05 19:21:15;;;;;;;;;;;;;;;3.00;86.52;98962.32;3521678;79;20501;-71
2022/01/05 19:26:08;;;;;;;;;;;;;;;3.01;86.34;98961.50;3512957;79;20513;-71
2022/01/05 19:31:00;;;;;;;;;;;;;;;2.99;85.94;98960.61;3513544;79;21672;-71
2022/01/05 19:35:52;;;;;;;;;;;;;;;2.96;85.77;98968.24;3464235;79;20152;-71
2022/01/05 19:40:45;;;;;;;;;;;;;;;2.96;85.77;98970.81;3487209;79;20421;-72
2022/01/05 19:45:38;;;;;;;;;;;;;;;2.95;85.83;98981.94;3446543;81;20140;-71
2022/01/05 19:50:35;;;;;;;;;;;;;;;2.92;85.56;98972.87;3498332;79;20126;-70
2022/01/05 19:55:33;;;;;;;;;;;;;;;2.92;85.54;98975.88;3469658;81;20779;-71
2022/01/05 20:00:20;;;;;;;;;;;;;;;2.88;85.40;98967.25;3439845;81;20094;-71
2022/01/05 20:05:13;;;;;;;;;;;;;;;2.89;85.73;98968.95;3498809;79;20117;-71
2022/01/05 20:10:05;;;;;;;;;;;;;;;2.86;85.45;98974.02;3466291;79;20260;-71
2022/01/05 20:14:57;;;;;;;;;;;;;;;2.86;85.57;98971.06;3431759;81;20378;-72
2022/01/05 20:19:49;;;;;;;;;;;;;;;2.84;85.51;98970.56;3465236;81;20973;-72
2022/01/05 20:24:41;;;;;;;;;;;;;;;2.80;85.75;98985.04;3410278;81;20153;-71
2022/01/05 20:29:33;;;;;;;;;;;;;;;2.80;85.63;98985.04;3449887;79;20560;-70
2022/01/05 20:34:25;;;;;;;;;;;;;;;2.80;85.52;98986.75;3480161;79;20416;-70
2022/01/05 20:39:17;;;;;;;;;;;;;;;2.80;85.86;98996.59;3477450;80;20165;-71
2022/01/05 20:44:09;;;;;;;;;;;;;;;2.83;85.64;99004.78;3492170;80;20966;-72
2022/01/05 20:49:03;;;;;;;;;;;;;;;2.80;85.74;99006.86;3471717;80;20208;-72
2022/01/05 20:53:54;;;;;;;;;;;;;;;2.79;85.51;99008.10;3450264;81;20124;-72
2022/01/05 20:58:47;;;;;;;;;;;;;;;2.77;85.52;99008.49;3490234;80;20119;-72
2022/01/05 21:03:40;;;;;;;;;;;;;;;2.77;85.67;99007.21;3449998;80;20131;-72
2022/01/05 21:08:32;;;;;;;;;;;;;;;2.77;85.74;99012.34;3417709;80;21090;-71
2022/01/05 21:13:23;;;;;;;;;;;;;;;2.76;85.56;99015.77;3410384;80;20444;-71
2022/01/05 21:18:16;;;;;;;;;;;;;;;2.74;85.58;99020.00;3465807;80;20420;-72
2022/01/05 21:23:09;;;;;;;;;;;;;;;2.73;85.43;99019.54;3458058;80;20507;-72
2022/01/05 21:28:01;;;;;;;;;;;;;;;2.72;85.43;99024.20;3420368;80;20195;-71
2022/01/05 21:32:53;;;;;;;;;;;;;;;2.70;85.13;99015.61;3470546;80;21040;-71
2022/01/05 21:37:46;;;;;;;;;;;;;;;2.66;84.98;99023.27;3461453;81;20510;-71
2022/01/05 21:42:38;;;;;;;;;;;;;;;2.65;85.15;99027.94;3485266;79;20394;-71
2022/01/05 21:47:32;;;;;;;;;;;;;;;2.67;85.03;99030.12;3539907;79;20136;-72
2022/01/05 21:52:23;;;;;;;;;;;;;;;2.65;84.48;99029.22;3491067;79;20102;-71
2022/01/05 21:57:15;;;;;;;;;;;;;;;2.64;84.46;99037.74;3551686;79;20716;-72
2022/01/05 22:02:08;;;;;;;;;;;;;;;2.64;84.52;99035.17;3483576;79;20294;-72
2022/01/05 22:07:00;;;;;;;;;;;;;;;2.64;84.36;99039.02;3550725;79;21158;-71
2022/01/05 22:11:52;;;;;;;;;;;;;;;2.63;84.47;99029.61;3469830;79;20456;-71
2022/01/05 22:16:43;;;;;;;;;;;;;;;2.67;84.59;99027.55;3548562;79;20154;-72
2022/01/05 22:21:35;;;;;;;;;;;;;;;2.70;84.35;99031.91;3515723;81;20913;-71
2022/01/05 22:26:27;;;;;;;;;;;;;;;2.69;84.51;99030.16;3492868;79;20129;-71
2022/01/05 22:31:19;;;;;;;;;;;;;;;2.70;84.45;99028.45;3535930;79;20086;-70
2022/01/05 22:36:11;;;;;;;;;;;;;;;2.70;84.14;99033.58;3493293;79;20113;-72
2022/01/05 22:41:03;;;;;;;;;;;;;;;2.70;84.24;99028.45;3476136;79;20192;-70
2022/01/05 22:45:55;;;;;;;;;;;;;;;2.66;84.20;99024.95;3464178;80;20844;-72
2022/01/05 22:50:51;;;;;;;;;;;;;;;2.64;84.32;99024.05;3450694;80;20111;-72
2022/01/05 22:55:43;;;;;;;;;;;;;;;2.64;84.28;99022.34;3463408;80;20143;-72
2022/01/05 23:00:41;;;;;;;;;;;;;;;2.65;84.36;99016.39;3460043;80;20134;-72
2022/01/05 23:05:33;;;;;;;;;;;;;;;2.61;84.03;99009.47;3376074;82;21914;-73
2022/01/05 23:10:31;;;;;;;;;;;;;;;2.59;84.21;99013.67;3461316;80;22391;-71
2022/01/05 23:15:23;;;;;;;;;;;;;;;2.57;84.05;99020.48;3484811;80;20452;-72
2022/01/05 23:20:16;;;;;;;;;;;;;;;2.58;84.08;99014.95;3480026;80;20120;-72
2022/01/05 23:25:08;;;;;;;;;;;;;;;2.55;83.85;99015.73;3394440;82;20149;-71
2022/01/05 23:30:01;;;;;;;;;;;;;;;2.54;83.84;99007.61;3380248;82;20601;-71
2022/01/05 23:34:53;;;;;;;;;;;;;;;2.54;83.84;99002.48;3436097;80;21778;-72
2022/01/05 23:39:45;;;;;;;;;;;;;;;2.52;83.58;99003.26;3403129;81;20112;-71
2022/01/05 23:44:37;;;;;;;;;;;;;;;2.47;83.49;98990.34;3432389;79;20133;-72
2022/01/05 23:49:29;;;;;;;;;;;;;;;2.48;83.78;98990.78;3473936;80;20434;-71
2022/01/05 23:54:21;;;;;;;;;;;;;;;2.48;83.57;98994.63;3484201;79;20156;-70
2022/01/05 23:59:13;;;;;;;;;;;;;;;2.48;83.34;98994.20;3542598;79;20931;-71
